AZU2955 SBKP-SBFI
Flight info
| Callsign | AZU2955 |
|---|---|
| Flight time | 1h 15m |
| Altitude | 38000 |
| Route | OSUD4A ASETA UZ152 UPORU ANBA1A |
| Aircraft | A20N/M-SDE2E3FGHIRWXY/LB1 |
Departure
| Time | 2026-04-23 23:02 |
|---|---|
| Airport | Viracopos International Airport (SBKP) |
Arrival
| Time | 2026-04-24 00:18 |
|---|---|
| Airport | Cataratas International Airport (SBFI) |
| Time | Latitude | Longitude | Altitude | Speed | Heading |
|---|---|---|---|---|---|
| 2026-04-23 22:44 | -23.00446 | -47.15005 | 2150 ft | 0 kts | 38° |
| 2026-04-23 22:54 | -23.00455 | -47.15012 | 2149 ft | 2 kts | 34° |
| 2026-04-23 22:54 | -23.00469 | -47.15022 | 2155 ft | 2 kts | 26° |
| 2026-04-23 22:54 | -23.00484 | -47.15028 | 2150 ft | 2 kts | 358° |
| 2026-04-23 22:55 | -23.00499 | -47.15022 | 2153 ft | 2 kts | 314° |
| 2026-04-23 22:55 | -23.00505 | -47.15015 | 2149 ft | 0 kts | 308° |
| 2026-04-23 22:58 | -23.00497 | -47.15026 | 2153 ft | 4 kts | 307° |
| 2026-04-23 22:58 | -23.00474 | -47.15060 | 2152 ft | 7 kts | 307° |
| 2026-04-23 22:59 | -23.00435 | -47.15117 | 2157 ft | 11 kts | 307° |
| 2026-04-23 22:59 | -23.00368 | -47.15158 | 2155 ft | 12 kts | 20° |
| 2026-04-23 22:59 | -23.00290 | -47.15099 | 2153 ft | 15 kts | 38° |
| 2026-04-23 22:59 | -23.00201 | -47.15022 | 2154 ft | 18 kts | 39° |
| 2026-04-23 23:00 | -23.00100 | -47.14937 | 2152 ft | 20 kts | 37° |
| 2026-04-23 23:00 | -23.00016 | -47.14855 | 2153 ft | 14 kts | 59° |
| 2026-04-23 23:00 | -22.99946 | -47.14780 | 2157 ft | 15 kts | 38° |
| 2026-04-23 23:00 | -22.99930 | -47.14765 | 2151 ft | 0 kts | 44° |
| 2026-04-23 23:01 | -22.99929 | -47.14764 | 2152 ft | 1 kts | 44° |
| 2026-04-23 23:01 | -22.99907 | -47.14735 | 2150 ft | 9 kts | 58° |
| 2026-04-23 23:01 | -22.99889 | -47.14645 | 2154 ft | 14 kts | 102° |
| 2026-04-23 23:01 | -22.99933 | -47.14579 | 2155 ft | 14 kts | 128° |
| 2026-04-23 23:02 | -23.00107 | -47.14336 | 2153 ft | 74 kts | 128° |
| 2026-04-23 23:02 | -23.00545 | -47.13722 | 2155 ft | 129 kts | 128° |
| 2026-04-23 23:02 | -23.01170 | -47.12854 | 2384 ft | 154 kts | 128° |
| 2026-04-23 23:02 | -23.01866 | -47.11933 | 2881 ft | 163 kts | 130° |
| 2026-04-23 23:03 | -23.02602 | -47.10978 | 3504 ft | 164 kts | 129° |
| 2026-04-23 23:03 | -23.03291 | -47.10034 | 4158 ft | 162 kts | 127° |
| 2026-04-23 23:03 | -23.04012 | -47.09016 | 4501 ft | 182 kts | 126° |
| 2026-04-23 23:03 | -23.04855 | -47.07873 | 4813 ft | 209 kts | 134° |
| 2026-04-23 23:04 | -23.06209 | -47.07075 | 5223 ft | 240 kts | 166° |
| 2026-04-23 23:04 | -23.07960 | -47.07157 | 5774 ft | 270 kts | 195° |
| 2026-04-23 23:04 | -23.09610 | -47.08212 | 6510 ft | 283 kts | 226° |
| 2026-04-23 23:04 | -23.10670 | -47.10006 | 7334 ft | 287 kts | 252° |
| 2026-04-23 23:05 | -23.11112 | -47.12149 | 8177 ft | 294 kts | 264° |
| 2026-04-23 23:05 | -23.11193 | -47.14386 | 9044 ft | 300 kts | 271° |
| 2026-04-23 23:05 | -23.11060 | -47.16674 | 9900 ft | 306 kts | 274° |
| 2026-04-23 23:05 | -23.10973 | -47.19014 | 10579 ft | 317 kts | 270° |
| 2026-04-23 23:06 | -23.10986 | -47.21501 | 10900 ft | 341 kts | 268° |
| 2026-04-23 23:06 | -23.11054 | -47.24155 | 11293 ft | 359 kts | 268° |
| 2026-04-23 23:06 | -23.11137 | -47.26887 | 12058 ft | 363 kts | 268° |
| 2026-04-23 23:06 | -23.11220 | -47.29645 | 12889 ft | 366 kts | 268° |
| 2026-04-23 23:07 | -23.11298 | -47.32415 | 13706 ft | 370 kts | 269° |
| 2026-04-23 23:07 | -23.11373 | -47.35215 | 14541 ft | 370 kts | 269° |
| 2026-04-23 23:07 | -23.11445 | -47.38034 | 15118 ft | 378 kts | 269° |
| 2026-04-23 23:07 | -23.11517 | -47.40908 | 15822 ft | 382 kts | 269° |
| 2026-04-23 23:08 | -23.11588 | -47.43809 | 16510 ft | 384 kts | 269° |
| 2026-04-23 23:08 | -23.11659 | -47.46684 | 17189 ft | 388 kts | 269° |
| 2026-04-23 23:08 | -23.11730 | -47.49626 | 17830 ft | 391 kts | 269° |
| 2026-04-23 23:08 | -23.11802 | -47.52588 | 18465 ft | 394 kts | 269° |
| 2026-04-23 23:09 | -23.11873 | -47.55573 | 19104 ft | 393 kts | 269° |
| 2026-04-23 23:09 | -23.11945 | -47.58531 | 19887 ft | 389 kts | 269° |
| 2026-04-23 23:09 | -23.12015 | -47.61474 | 20463 ft | 391 kts | 269° |
| 2026-04-23 23:09 | -23.12084 | -47.64443 | 20999 ft | 395 kts | 269° |
| 2026-04-23 23:10 | -23.12154 | -47.67433 | 21603 ft | 396 kts | 269° |
| 2026-04-23 23:10 | -23.12222 | -47.70388 | 22220 ft | 396 kts | 269° |
| 2026-04-23 23:10 | -23.12290 | -47.73383 | 22790 ft | 398 kts | 269° |
| 2026-04-23 23:10 | -23.12359 | -47.76394 | 23037 ft | 399 kts | 269° |
| 2026-04-23 23:11 | -23.12426 | -47.79411 | 23094 ft | 399 kts | 269° |
| 2026-04-23 23:11 | -23.12591 | -47.82423 | 23113 ft | 401 kts | 262° |
| 2026-04-23 23:11 | -23.13287 | -47.85360 | 23573 ft | 403 kts | 250° |
| 2026-04-23 23:11 | -23.14505 | -47.88101 | 24147 ft | 404 kts | 240° |
| 2026-04-23 23:12 | -23.16112 | -47.90616 | 24606 ft | 406 kts | 236° |
| 2026-04-23 23:12 | -23.17761 | -47.93117 | 25036 ft | 408 kts | 236° |
| 2026-04-23 23:12 | -23.19418 | -47.95633 | 25492 ft | 410 kts | 236° |
| 2026-04-23 23:12 | -23.21080 | -47.98158 | 25923 ft | 411 kts | 237° |
| 2026-04-23 23:13 | -23.22746 | -48.00692 | 26376 ft | 413 kts | 237° |
| 2026-04-23 23:13 | -23.24418 | -48.03236 | 26783 ft | 415 kts | 237° |
| 2026-04-23 23:13 | -23.26098 | -48.05806 | 27186 ft | 417 kts | 238° |
| 2026-04-23 23:13 | -23.27544 | -48.08531 | 27589 ft | 416 kts | 246° |
| 2026-04-23 23:14 | -23.28618 | -48.11450 | 27991 ft | 416 kts | 253° |
| 2026-04-23 23:14 | -23.29307 | -48.14503 | 28375 ft | 416 kts | 261° |
| 2026-04-23 23:14 | -23.29748 | -48.17586 | 28758 ft | 418 kts | 262° |
| 2026-04-23 23:14 | -23.30204 | -48.20715 | 29126 ft | 420 kts | 261° |
| 2026-04-23 23:15 | -23.30668 | -48.23859 | 29480 ft | 422 kts | 261° |
| 2026-04-23 23:15 | -23.31134 | -48.27021 | 29839 ft | 424 kts | 261° |
| 2026-04-23 23:15 | -23.31600 | -48.30194 | 30204 ft | 426 kts | 261° |
| 2026-04-23 23:15 | -23.32067 | -48.33387 | 30511 ft | 428 kts | 261° |
| 2026-04-23 23:16 | -23.32535 | -48.36592 | 30830 ft | 430 kts | 261° |
| 2026-04-23 23:16 | -23.33060 | -48.39804 | 31154 ft | 432 kts | 258° |
| 2026-04-23 23:16 | -23.33864 | -48.42955 | 31527 ft | 433 kts | 252° |
| 2026-04-23 23:16 | -23.34943 | -48.46019 | 31950 ft | 432 kts | 249° |
| 2026-04-23 23:17 | -23.36075 | -48.49041 | 32386 ft | 431 kts | 249° |
| 2026-04-23 23:17 | -23.37198 | -48.52065 | 32833 ft | 429 kts | 249° |
| 2026-04-23 23:17 | -23.38295 | -48.55031 | 33275 ft | 427 kts | 249° |
| 2026-04-23 23:17 | -23.39402 | -48.58027 | 33709 ft | 426 kts | 249° |
| 2026-04-23 23:18 | -23.40509 | -48.61019 | 34130 ft | 424 kts | 249° |
| 2026-04-23 23:18 | -23.41610 | -48.64001 | 34486 ft | 423 kts | 249° |
| 2026-04-23 23:18 | -23.42708 | -48.66973 | 34840 ft | 422 kts | 249° |
| 2026-04-23 23:18 | -23.43802 | -48.69934 | 35175 ft | 420 kts | 249° |
| 2026-04-23 23:19 | -23.44522 | -48.71884 | 35374 ft | 420 kts | 249° |
| 2026-04-23 23:19 | -23.45612 | -48.74839 | 35696 ft | 419 kts | 249° |
| 2026-04-23 23:19 | -23.46696 | -48.77781 | 36024 ft | 418 kts | 249° |
| 2026-04-23 23:19 | -23.47778 | -48.80716 | 36338 ft | 417 kts | 249° |
| 2026-04-23 23:20 | -23.48857 | -48.83647 | 36624 ft | 417 kts | 249° |
| 2026-04-23 23:20 | -23.49936 | -48.86580 | 36922 ft | 416 kts | 249° |
| 2026-04-23 23:20 | -23.51012 | -48.89507 | 37214 ft | 415 kts | 249° |
| 2026-04-23 23:20 | -23.52084 | -48.92425 | 37499 ft | 414 kts | 249° |
| 2026-04-23 23:21 | -23.53140 | -48.95299 | 37776 ft | 413 kts | 249° |
| 2026-04-23 23:21 | -23.54205 | -48.98203 | 38026 ft | 413 kts | 249° |
| 2026-04-23 23:21 | -23.55274 | -49.01117 | 38120 ft | 412 kts | 249° |
| 2026-04-23 23:22 | -23.57397 | -49.06912 | 38123 ft | 411 kts | 249° |
| 2026-04-23 23:22 | -23.59510 | -49.12688 | 38121 ft | 410 kts | 249° |
| 2026-04-23 23:23 | -23.61621 | -49.18465 | 38120 ft | 410 kts | 249° |
| 2026-04-23 23:23 | -23.63729 | -49.24246 | 38120 ft | 410 kts | 249° |
| 2026-04-23 23:24 | -23.65821 | -49.29990 | 38119 ft | 410 kts | 249° |
| 2026-04-23 23:24 | -23.67925 | -49.35774 | 38125 ft | 410 kts | 249° |
| 2026-04-23 23:25 | -23.70027 | -49.41558 | 38118 ft | 409 kts | 249° |
| 2026-04-23 23:25 | -23.72126 | -49.47343 | 38120 ft | 409 kts | 249° |
| 2026-04-23 23:26 | -23.74220 | -49.53123 | 38119 ft | 409 kts | 249° |
| 2026-04-23 23:26 | -23.76294 | -49.58864 | 38122 ft | 409 kts | 250° |
| 2026-04-23 23:27 | -23.78376 | -49.64645 | 38116 ft | 409 kts | 250° |
| 2026-04-23 23:27 | -23.80457 | -49.70428 | 38114 ft | 408 kts | 250° |
| 2026-04-23 23:28 | -23.82533 | -49.76202 | 38121 ft | 408 kts | 250° |
| 2026-04-23 23:28 | -23.84602 | -49.81967 | 38107 ft | 408 kts | 250° |
| 2026-04-23 23:29 | -23.86660 | -49.87707 | 38105 ft | 408 kts | 250° |
| 2026-04-23 23:29 | -23.88724 | -49.93472 | 38124 ft | 407 kts | 250° |
| 2026-04-23 23:30 | -23.90786 | -49.99244 | 38123 ft | 407 kts | 250° |
| 2026-04-23 23:30 | -23.92843 | -50.05013 | 38124 ft | 407 kts | 250° |
| 2026-04-23 23:31 | -23.94894 | -50.10773 | 38116 ft | 407 kts | 250° |
| 2026-04-23 23:31 | -23.96946 | -50.16546 | 38112 ft | 407 kts | 250° |
| 2026-04-23 23:32 | -23.98981 | -50.22275 | 38115 ft | 407 kts | 250° |
| 2026-04-23 23:32 | -24.01030 | -50.28054 | 38110 ft | 407 kts | 250° |
| 2026-04-23 23:33 | -24.03074 | -50.33832 | 38112 ft | 407 kts | 250° |
| 2026-04-23 23:33 | -24.05112 | -50.39599 | 38121 ft | 406 kts | 250° |
| 2026-04-23 23:34 | -24.07151 | -50.45378 | 38120 ft | 407 kts | 250° |
| 2026-04-23 23:34 | -24.09175 | -50.51125 | 38119 ft | 407 kts | 250° |
| 2026-04-23 23:35 | -24.11208 | -50.56911 | 38108 ft | 407 kts | 250° |
| 2026-04-23 23:35 | -24.13242 | -50.62708 | 38120 ft | 407 kts | 250° |
| 2026-04-23 23:36 | -24.15274 | -50.68508 | 38117 ft | 408 kts | 250° |
| 2026-04-23 23:36 | -24.17290 | -50.74268 | 38115 ft | 408 kts | 250° |
| 2026-04-23 23:37 | -24.19322 | -50.80081 | 38106 ft | 408 kts | 250° |
| 2026-04-23 23:37 | -24.21350 | -50.85895 | 38120 ft | 408 kts | 250° |
| 2026-04-23 23:38 | -24.23363 | -50.91669 | 38111 ft | 408 kts | 250° |
| 2026-04-23 23:38 | -24.25387 | -50.97485 | 38110 ft | 408 kts | 250° |
| 2026-04-23 23:39 | -24.27410 | -51.03306 | 38119 ft | 409 kts | 250° |
| 2026-04-23 23:39 | -24.29430 | -51.09132 | 38107 ft | 409 kts | 251° |
| 2026-04-23 23:40 | -24.31446 | -51.14966 | 38107 ft | 408 kts | 250° |
| 2026-04-23 23:40 | -24.33458 | -51.20793 | 38103 ft | 408 kts | 251° |
| 2026-04-23 23:41 | -24.35464 | -51.26609 | 38098 ft | 408 kts | 251° |
| 2026-04-23 23:41 | -24.37455 | -51.32392 | 38099 ft | 407 kts | 251° |
| 2026-04-23 23:42 | -24.39456 | -51.38212 | 38095 ft | 407 kts | 251° |
| 2026-04-23 23:42 | -24.41451 | -51.44024 | 38103 ft | 407 kts | 251° |
| 2026-04-23 23:43 | -24.43441 | -51.49830 | 38086 ft | 406 kts | 251° |
| 2026-04-23 23:43 | -24.45432 | -51.55647 | 38078 ft | 405 kts | 251° |
| 2026-04-23 23:44 | -24.47399 | -51.61399 | 38080 ft | 405 kts | 251° |
| 2026-04-23 23:44 | -24.49377 | -51.67194 | 38084 ft | 405 kts | 251° |
| 2026-04-23 23:45 | -24.51350 | -51.72983 | 38084 ft | 405 kts | 251° |
| 2026-04-23 23:45 | -24.53328 | -51.78794 | 38084 ft | 405 kts | 251° |
| 2026-04-23 23:46 | -24.55301 | -51.84599 | 38092 ft | 405 kts | 251° |
| 2026-04-23 23:46 | -24.57269 | -51.90402 | 38106 ft | 405 kts | 251° |
| 2026-04-23 23:47 | -24.59219 | -51.96171 | 38100 ft | 405 kts | 251° |
| 2026-04-23 23:47 | -24.61181 | -52.01987 | 38099 ft | 405 kts | 251° |
| 2026-04-23 23:48 | -24.63135 | -52.07783 | 38096 ft | 401 kts | 251° |
| 2026-04-23 23:48 | -24.65071 | -52.13532 | 38091 ft | 401 kts | 251° |
| 2026-04-23 23:49 | -24.67974 | -52.22176 | 38093 ft | 401 kts | 251° |
| 2026-04-23 23:49 | -24.69906 | -52.27936 | 38091 ft | 402 kts | 251° |
| 2026-04-23 23:50 | -24.71818 | -52.33644 | 38083 ft | 398 kts | 252° |
| 2026-04-23 23:50 | -24.73736 | -52.39378 | 38076 ft | 399 kts | 252° |
| 2026-04-23 23:51 | -24.75649 | -52.45109 | 38080 ft | 399 kts | 252° |
| 2026-04-23 23:51 | -24.77560 | -52.50839 | 38077 ft | 399 kts | 252° |
| 2026-04-23 23:52 | -24.79471 | -52.56575 | 38076 ft | 398 kts | 252° |
| 2026-04-23 23:52 | -24.81365 | -52.62276 | 38065 ft | 398 kts | 252° |
| 2026-04-23 23:53 | -24.83270 | -52.68011 | 38062 ft | 397 kts | 252° |
| 2026-04-23 23:53 | -24.85164 | -52.73737 | 38059 ft | 397 kts | 252° |
| 2026-04-23 23:54 | -24.87051 | -52.79452 | 38071 ft | 397 kts | 252° |
| 2026-04-23 23:54 | -24.88922 | -52.85127 | 38070 ft | 397 kts | 252° |
| 2026-04-23 23:55 | -24.90805 | -52.90845 | 38070 ft | 397 kts | 252° |
| 2026-04-23 23:55 | -24.92689 | -52.96574 | 38068 ft | 397 kts | 252° |
| 2026-04-23 23:56 | -24.94574 | -53.02317 | 37631 ft | 399 kts | 252° |
| 2026-04-23 23:56 | -24.95521 | -53.05208 | 36814 ft | 405 kts | 252° |
| 2026-04-23 23:56 | -24.96492 | -53.08172 | 35657 ft | 416 kts | 252° |
| 2026-04-23 23:57 | -24.97483 | -53.11201 | 34809 ft | 420 kts | 252° |
| 2026-04-23 23:57 | -24.98466 | -53.14200 | 33969 ft | 424 kts | 252° |
| 2026-04-23 23:57 | -24.99468 | -53.17264 | 33151 ft | 424 kts | 252° |
| 2026-04-23 23:57 | -25.00469 | -53.20323 | 32224 ft | 427 kts | 252° |
| 2026-04-23 23:58 | -25.01477 | -53.23409 | 31400 ft | 427 kts | 252° |
| 2026-04-23 23:58 | -25.02485 | -53.26499 | 30638 ft | 428 kts | 253° |
| 2026-04-23 23:58 | -25.03485 | -53.29563 | 30143 ft | 421 kts | 253° |
| 2026-04-23 23:58 | -25.04473 | -53.32594 | 29475 ft | 416 kts | 253° |
| 2026-04-23 23:59 | -25.05444 | -53.35579 | 28858 ft | 411 kts | 253° |
| 2026-04-23 23:59 | -25.06405 | -53.38535 | 28236 ft | 407 kts | 253° |
| 2026-04-23 23:59 | -25.07344 | -53.41426 | 27620 ft | 403 kts | 253° |
| 2026-04-23 23:59 | -25.08282 | -53.44319 | 27068 ft | 399 kts | 253° |
| 2026-04-24 00:00 | -25.09214 | -53.47194 | 26398 ft | 396 kts | 253° |
| 2026-04-24 00:00 | -25.10140 | -53.50048 | 25752 ft | 395 kts | 253° |
| 2026-04-24 00:00 | -25.11060 | -53.52889 | 25156 ft | 392 kts | 253° |
| 2026-04-24 00:00 | -25.11975 | -53.55716 | 24546 ft | 390 kts | 253° |
| 2026-04-24 00:01 | -25.12887 | -53.58538 | 23939 ft | 389 kts | 253° |
| 2026-04-24 00:01 | -25.13794 | -53.61344 | 23271 ft | 388 kts | 253° |
| 2026-04-24 00:01 | -25.14695 | -53.64131 | 22698 ft | 382 kts | 253° |
| 2026-04-24 00:01 | -25.15583 | -53.66881 | 22108 ft | 379 kts | 253° |
| 2026-04-24 00:02 | -25.16462 | -53.69614 | 21513 ft | 376 kts | 253° |
| 2026-04-24 00:02 | -25.17321 | -53.72296 | 20924 ft | 374 kts | 253° |
| 2026-04-24 00:02 | -25.18188 | -53.75004 | 20294 ft | 373 kts | 253° |
| 2026-04-24 00:02 | -25.19048 | -53.77692 | 19695 ft | 371 kts | 253° |
| 2026-04-24 00:03 | -25.19907 | -53.80376 | 19123 ft | 369 kts | 253° |
| 2026-04-24 00:03 | -25.20764 | -53.83054 | 18539 ft | 369 kts | 253° |
| 2026-04-24 00:03 | -25.21620 | -53.85731 | 17901 ft | 368 kts | 253° |
| 2026-04-24 00:03 | -25.22448 | -53.88399 | 17297 ft | 364 kts | 256° |
| 2026-04-24 00:04 | -25.23078 | -53.91100 | 16716 ft | 361 kts | 258° |
| 2026-04-24 00:04 | -25.23681 | -53.93750 | 16144 ft | 359 kts | 257° |
| 2026-04-24 00:04 | -25.24294 | -53.96423 | 15559 ft | 358 kts | 257° |
| 2026-04-24 00:04 | -25.24906 | -53.99089 | 14965 ft | 358 kts | 257° |
| 2026-04-24 00:05 | -25.25517 | -54.01749 | 14361 ft | 358 kts | 257° |
| 2026-04-24 00:05 | -25.26124 | -54.04398 | 13789 ft | 357 kts | 257° |
| 2026-04-24 00:05 | -25.26734 | -54.07062 | 13218 ft | 355 kts | 257° |
| 2026-04-24 00:05 | -25.27337 | -54.09700 | 12644 ft | 352 kts | 257° |
| 2026-04-24 00:06 | -25.27734 | -54.11435 | 12281 ft | 351 kts | 257° |
| 2026-04-24 00:06 | -25.28524 | -54.14896 | 11531 ft | 349 kts | 257° |
| 2026-04-24 00:06 | -25.29117 | -54.17494 | 10962 ft | 348 kts | 257° |
| 2026-04-24 00:06 | -25.29509 | -54.19218 | 10597 ft | 347 kts | 257° |
| 2026-04-24 00:07 | -25.30093 | -54.21778 | 10299 ft | 337 kts | 256° |
| 2026-04-24 00:07 | -25.30655 | -54.24242 | 10180 ft | 323 kts | 256° |
| 2026-04-24 00:07 | -25.31192 | -54.26599 | 10055 ft | 309 kts | 257° |
| 2026-04-24 00:07 | -25.31711 | -54.28878 | 9756 ft | 303 kts | 257° |
| 2026-04-24 00:08 | -25.32223 | -54.31133 | 9329 ft | 301 kts | 257° |
| 2026-04-24 00:08 | -25.32730 | -54.33371 | 8905 ft | 299 kts | 257° |
| 2026-04-24 00:08 | -25.33233 | -54.35592 | 8487 ft | 297 kts | 257° |
| 2026-04-24 00:08 | -25.33734 | -54.37801 | 8069 ft | 296 kts | 257° |
| 2026-04-24 00:09 | -25.34232 | -54.40004 | 7653 ft | 295 kts | 257° |
| 2026-04-24 00:09 | -25.34730 | -54.42201 | 7227 ft | 294 kts | 257° |
| 2026-04-24 00:09 | -25.35225 | -54.44394 | 6823 ft | 294 kts | 257° |
| 2026-04-24 00:09 | -25.35716 | -54.46563 | 6585 ft | 285 kts | 257° |
| 2026-04-24 00:10 | -25.36182 | -54.48621 | 6437 ft | 267 kts | 257° |
| 2026-04-24 00:10 | -25.36618 | -54.50550 | 6290 ft | 250 kts | 257° |
| 2026-04-24 00:10 | -25.37026 | -54.52347 | 6147 ft | 233 kts | 257° |
| 2026-04-24 00:10 | -25.37399 | -54.54000 | 6018 ft | 217 kts | 257° |
| 2026-04-24 00:11 | -25.37757 | -54.55588 | 5775 ft | 209 kts | 257° |
| 2026-04-24 00:11 | -25.38106 | -54.57144 | 5417 ft | 208 kts | 257° |
| 2026-04-24 00:11 | -25.38471 | -54.58694 | 5055 ft | 207 kts | 250° |
| 2026-04-24 00:11 | -25.39327 | -54.59954 | 4673 ft | 208 kts | 212° |
| 2026-04-24 00:12 | -25.40632 | -54.60615 | 4399 ft | 206 kts | 199° |
| 2026-04-24 00:12 | -25.41963 | -54.61124 | 4151 ft | 204 kts | 198° |
| 2026-04-24 00:12 | -25.43283 | -54.61615 | 4063 ft | 192 kts | 198° |
| 2026-04-24 00:12 | -25.44496 | -54.62084 | 3968 ft | 178 kts | 199° |
| 2026-04-24 00:13 | -25.45617 | -54.62529 | 3882 ft | 165 kts | 199° |
| 2026-04-24 00:13 | -25.46665 | -54.62958 | 3761 ft | 157 kts | 200° |
| 2026-04-24 00:13 | -25.47707 | -54.63235 | 3541 ft | 154 kts | 173° |
| 2026-04-24 00:13 | -25.48646 | -54.62779 | 3272 ft | 148 kts | 133° |
| 2026-04-24 00:14 | -25.49299 | -54.61936 | 3085 ft | 139 kts | 130° |
| 2026-04-24 00:14 | -25.49980 | -54.61082 | 3041 ft | 150 kts | 129° |
| 2026-04-24 00:14 | -25.50646 | -54.60224 | 2928 ft | 149 kts | 130° |
| 2026-04-24 00:14 | -25.51323 | -54.59355 | 2765 ft | 147 kts | 130° |
| 2026-04-24 00:15 | -25.51994 | -54.58492 | 2591 ft | 146 kts | 130° |
| 2026-04-24 00:15 | -25.52647 | -54.57654 | 2420 ft | 139 kts | 130° |
| 2026-04-24 00:15 | -25.53260 | -54.56865 | 2249 ft | 135 kts | 130° |
| 2026-04-24 00:15 | -25.53870 | -54.56082 | 2077 ft | 134 kts | 131° |
| 2026-04-24 00:16 | -25.54480 | -54.55298 | 1912 ft | 135 kts | 131° |
| 2026-04-24 00:16 | -25.55071 | -54.54538 | 1736 ft | 131 kts | 132° |
| 2026-04-24 00:16 | -25.55673 | -54.53765 | 1580 ft | 133 kts | 132° |
| 2026-04-24 00:16 | -25.56281 | -54.52981 | 1419 ft | 135 kts | 131° |
| 2026-04-24 00:17 | -25.56887 | -54.52202 | 1252 ft | 133 kts | 130° |
| 2026-04-24 00:17 | -25.57492 | -54.51418 | 1104 ft | 134 kts | 130° |
| 2026-04-24 00:17 | -25.58100 | -54.50636 | 987 ft | 134 kts | 129° |
| 2026-04-24 00:17 | -25.58711 | -54.49849 | 831 ft | 135 kts | 130° |
| 2026-04-24 00:18 | -25.59261 | -54.49139 | 799 ft | 89 kts | 131° |
| 2026-04-24 00:18 | -25.59540 | -54.48785 | 798 ft | 42 kts | 131° |
| 2026-04-24 00:18 | -25.59622 | -54.48682 | 798 ft | 10 kts | 141° |
| 2026-04-24 00:18 | -25.59684 | -54.48700 | 798 ft | 11 kts | 221° |
| 2026-04-24 00:19 | -25.59700 | -54.48715 | 798 ft | 2 kts | 221° |
| 2026-04-24 00:19 | -25.59724 | -54.48739 | 798 ft | 7 kts | 221° |
| 2026-04-24 00:19 | -25.59746 | -54.48760 | 798 ft | 1 kts | 220° |
| 2026-04-24 00:19 | -25.59755 | -54.48768 | 798 ft | 1 kts | 220° |
| 2026-04-24 00:20 | -25.59756 | -54.48769 | 798 ft | 0 kts | 220° |